sensor_id;sensor_type;location;lat;lon;timestamp;P1;durP1;ratioP1;P2;durP2;ratioP2
13102;SDS011;52970;46.752;17.108;2022-07-23T00:01:19;7.63;;;5.15;;
13102;SDS011;52970;46.752;17.108;2022-07-23T00:03:44;5.53;;;4.13;;
13102;SDS011;52970;46.752;17.108;2022-07-23T00:06:10;5.22;;;4.82;;
13102;SDS011;52970;46.752;17.108;2022-07-23T00:08:35;9.35;;;5.00;;
13102;SDS011;52970;46.752;17.108;2022-07-23T00:11:00;5.78;;;5.18;;
13102;SDS011;52970;46.752;17.108;2022-07-23T00:13:26;5.18;;;4.75;;
13102;SDS011;52970;46.752;17.108;2022-07-23T00:15:52;7.38;;;5.07;;
13102;SDS011;52970;46.752;17.108;2022-07-23T00:18:17;4.57;;;4.20;;
13102;SDS011;52970;46.752;17.108;2022-07-23T00:20:43;6.53;;;5.00;;
13102;SDS011;52970;46.752;17.108;2022-07-23T00:23:08;6.80;;;5.30;;
13102;SDS011;52970;46.752;17.108;2022-07-23T00:25:33;5.60;;;5.20;;
13102;SDS011;52970;46.752;17.108;2022-07-23T00:27:59;6.25;;;5.10;;
13102;SDS011;52970;46.752;17.108;2022-07-23T00:30:24;5.05;;;4.55;;
13102;SDS011;52970;46.752;17.108;2022-07-23T00:32:57;5.53;;;5.13;;
13102;SDS011;52970;46.752;17.108;2022-07-23T00:35:26;5.53;;;5.03;;
13102;SDS011;52970;46.752;17.108;2022-07-23T00:37:52;5.50;;;5.00;;
13102;SDS011;52970;46.752;17.108;2022-07-23T00:40:17;5.57;;;5.07;;
13102;SDS011;52970;46.752;17.108;2022-07-23T00:42:43;5.05;;;4.60;;
13102;SDS011;52970;46.752;17.108;2022-07-23T00:45:08;5.07;;;4.35;;
13102;SDS011;52970;46.752;17.108;2022-07-23T00:47:34;4.82;;;4.35;;
13102;SDS011;52970;46.752;17.108;2022-07-23T00:49:59;4.88;;;4.47;;
13102;SDS011;52970;46.752;17.108;2022-07-23T00:52:25;6.15;;;5.47;;
13102;SDS011;52970;46.752;17.108;2022-07-23T00:54:50;6.10;;;5.30;;
13102;SDS011;52970;46.752;17.108;2022-07-23T00:57:15;5.68;;;5.18;;
13102;SDS011;52970;46.752;17.108;2022-07-23T00:59:41;5.35;;;4.85;;
13102;SDS011;52970;46.752;17.108;2022-07-23T01:02:06;5.03;;;4.35;;
13102;SDS011;52970;46.752;17.108;2022-07-23T01:04:32;4.40;;;4.10;;
13102;SDS011;52970;46.752;17.108;2022-07-23T01:06:57;4.57;;;4.18;;
13102;SDS011;52970;46.752;17.108;2022-07-23T01:09:22;6.60;;;5.50;;
13102;SDS011;52970;46.752;17.108;2022-07-23T01:11:48;5.93;;;5.10;;
13102;SDS011;52970;46.752;17.108;2022-07-23T01:14:15;5.10;;;4.60;;
13102;SDS011;52970;46.752;17.108;2022-07-23T01:16:41;5.70;;;4.45;;
13102;SDS011;52970;46.752;17.108;2022-07-23T01:19:06;5.28;;;4.85;;
13102;SDS011;52970;46.752;17.108;2022-07-23T01:21:39;5.25;;;4.68;;
13102;SDS011;52970;46.752;17.108;2022-07-23T01:24:04;5.15;;;4.65;;
13102;SDS011;52970;46.752;17.108;2022-07-23T01:26:30;7.25;;;4.80;;
13102;SDS011;52970;46.752;17.108;2022-07-23T01:28:55;5.30;;;4.90;;
13102;SDS011;52970;46.752;17.108;2022-07-23T01:31:21;4.95;;;4.55;;
13102;SDS011;52970;46.752;17.108;2022-07-23T01:33:46;5.07;;;4.57;;
13102;SDS011;52970;46.752;17.108;2022-07-23T01:36:11;4.50;;;4.10;;
13102;SDS011;52970;46.752;17.108;2022-07-23T01:38:36;6.95;;;5.18;;
13102;SDS011;52970;46.752;17.108;2022-07-23T01:41:02;4.60;;;4.20;;
13102;SDS011;52970;46.752;17.108;2022-07-23T01:43:27;4.82;;;4.47;;
13102;SDS011;52970;46.752;17.108;2022-07-23T01:45:52;5.38;;;4.28;;
13102;SDS011;52970;46.752;17.108;2022-07-23T01:48:18;5.03;;;4.38;;
13102;SDS011;52970;46.752;17.108;2022-07-23T01:50:43;5.53;;;4.60;;
13102;SDS011;52970;46.752;17.108;2022-07-23T01:53:08;5.38;;;4.97;;
13102;SDS011;52970;46.752;17.108;2022-07-23T01:55:33;5.40;;;4.90;;
13102;SDS011;52970;46.752;17.108;2022-07-23T01:57:59;5.80;;;5.30;;
13102;SDS011;52970;46.752;17.108;2022-07-23T02:00:24;5.80;;;5.20;;
13102;SDS011;52970;46.752;17.108;2022-07-23T02:02:49;6.53;;;5.20;;
13102;SDS011;52970;46.752;17.108;2022-07-23T02:05:15;5.75;;;5.25;;
13102;SDS011;52970;46.752;17.108;2022-07-23T02:07:40;5.47;;;4.90;;
13102;SDS011;52970;46.752;17.108;2022-07-23T02:10:05;6.13;;;5.43;;
13102;SDS011;52970;46.752;17.108;2022-07-23T02:12:31;5.05;;;4.65;;
13102;SDS011;52970;46.752;17.108;2022-07-23T02:14:56;5.00;;;4.50;;
13102;SDS011;52970;46.752;17.108;2022-07-23T02:17:21;5.07;;;4.68;;
13102;SDS011;52970;46.752;17.108;2022-07-23T02:19:46;7.28;;;4.82;;
13102;SDS011;52970;46.752;17.108;2022-07-23T02:22:12;6.47;;;5.28;;
13102;SDS011;52970;46.752;17.108;2022-07-23T02:24:37;5.07;;;4.60;;
13102;SDS011;52970;46.752;17.108;2022-07-23T02:27:02;5.18;;;4.68;;
13102;SDS011;52970;46.752;17.108;2022-07-23T02:29:28;4.88;;;4.45;;
13102;SDS011;52970;46.752;17.108;2022-07-23T02:31:53;4.57;;;4.20;;
13102;SDS011;52970;46.752;17.108;2022-07-23T02:34:18;5.10;;;4.43;;
13102;SDS011;52970;46.752;17.108;2022-07-23T02:36:44;4.95;;;4.32;;
13102;SDS011;52970;46.752;17.108;2022-07-23T02:39:09;5.22;;;4.75;;
13102;SDS011;52970;46.752;17.108;2022-07-23T02:41:35;6.43;;;5.40;;
13102;SDS011;52970;46.752;17.108;2022-07-23T02:44:00;6.07;;;5.50;;
13102;SDS011;52970;46.752;17.108;2022-07-23T02:46:25;5.93;;;5.32;;
13102;SDS011;52970;46.752;17.108;2022-07-23T02:48:51;5.82;;;5.32;;
13102;SDS011;52970;46.752;17.108;2022-07-23T02:51:16;6.03;;;5.50;;
13102;SDS011;52970;46.752;17.108;2022-07-23T02:53:41;6.05;;;4.70;;
13102;SDS011;52970;46.752;17.108;2022-07-23T02:56:07;7.88;;;5.00;;
13102;SDS011;52970;46.752;17.108;2022-07-23T02:58:32;5.43;;;4.93;;
13102;SDS011;52970;46.752;17.108;2022-07-23T03:00:58;8.98;;;5.32;;
13102;SDS011;52970;46.752;17.108;2022-07-23T03:03:23;5.93;;;5.30;;
13102;SDS011;52970;46.752;17.108;2022-07-23T03:05:48;6.97;;;5.22;;
13102;SDS011;52970;46.752;17.108;2022-07-23T03:08:13;5.88;;;5.28;;
13102;SDS011;52970;46.752;17.108;2022-07-23T03:10:39;6.70;;;5.55;;
13102;SDS011;52970;46.752;17.108;2022-07-23T03:13:04;5.97;;;5.18;;
13102;SDS011;52970;46.752;17.108;2022-07-23T03:15:29;6.68;;;5.93;;
13102;SDS011;52970;46.752;17.108;2022-07-23T03:17:55;6.13;;;5.53;;
13102;SDS011;52970;46.752;17.108;2022-07-23T03:20:20;5.47;;;4.97;;
13102;SDS011;52970;46.752;17.108;2022-07-23T03:22:45;5.90;;;5.35;;
13102;SDS011;52970;46.752;17.108;2022-07-23T03:25:11;6.10;;;5.50;;
13102;SDS011;52970;46.752;17.108;2022-07-23T03:27:36;5.93;;;4.53;;
13102;SDS011;52970;46.752;17.108;2022-07-23T03:30:02;6.03;;;5.45;;
13102;SDS011;52970;46.752;17.108;2022-07-23T03:32:27;7.22;;;4.70;;
13102;SDS011;52970;46.752;17.108;2022-07-23T03:34:53;6.43;;;4.68;;
13102;SDS011;52970;46.752;17.108;2022-07-23T03:37:18;8.02;;;5.47;;
13102;SDS011;52970;46.752;17.108;2022-07-23T03:39:44;11.15;;;5.60;;
13102;SDS011;52970;46.752;17.108;2022-07-23T03:42:09;7.07;;;5.10;;
13102;SDS011;52970;46.752;17.108;2022-07-23T03:44:34;6.18;;;5.35;;
13102;SDS011;52970;46.752;17.108;2022-07-23T03:47:02;5.85;;;5.35;;
13102;SDS011;52970;46.752;17.108;2022-07-23T03:49:27;7.97;;;5.07;;
13102;SDS011;52970;46.752;17.108;2022-07-23T03:51:52;6.50;;;5.75;;
13102;SDS011;52970;46.752;17.108;2022-07-23T03:54:17;5.63;;;5.15;;
13102;SDS011;52970;46.752;17.108;2022-07-23T03:56:43;5.75;;;5.15;;
13102;SDS011;52970;46.752;17.108;2022-07-23T03:59:09;6.55;;;5.45;;
13102;SDS011;52970;46.752;17.108;2022-07-23T04:01:34;5.63;;;5.13;;
13102;SDS011;52970;46.752;17.108;2022-07-23T04:04:00;6.18;;;5.68;;
13102;SDS011;52970;46.752;17.108;2022-07-23T04:06:25;9.07;;;5.70;;
13102;SDS011;52970;46.752;17.108;2022-07-23T04:08:50;12.85;;;6.30;;
13102;SDS011;52970;46.752;17.108;2022-07-23T04:11:16;6.72;;;5.63;;
13102;SDS011;52970;46.752;17.108;2022-07-23T04:13:41;6.30;;;5.70;;
13102;SDS011;52970;46.752;17.108;2022-07-23T04:16:06;6.50;;;5.90;;
13102;SDS011;52970;46.752;17.108;2022-07-23T04:18:32;5.93;;;5.38;;
13102;SDS011;52970;46.752;17.108;2022-07-23T04:20:57;6.78;;;6.18;;
13102;SDS011;52970;46.752;17.108;2022-07-23T04:23:22;6.43;;;5.80;;
13102;SDS011;52970;46.752;17.108;2022-07-23T04:25:47;8.02;;;6.10;;
13102;SDS011;52970;46.752;17.108;2022-07-23T04:28:13;8.32;;;6.10;;
13102;SDS011;52970;46.752;17.108;2022-07-23T04:30:38;8.75;;;6.10;;
13102;SDS011;52970;46.752;17.108;2022-07-23T04:33:03;6.75;;;6.15;;
13102;SDS011;52970;46.752;17.108;2022-07-23T04:35:35;7.55;;;6.28;;
13102;SDS011;52970;46.752;17.108;2022-07-23T04:38:01;7.18;;;6.30;;
13102;SDS011;52970;46.752;17.108;2022-07-23T04:40:26;7.25;;;6.55;;
13102;SDS011;52970;46.752;17.108;2022-07-23T04:42:52;7.97;;;7.20;;
13102;SDS011;52970;46.752;17.108;2022-07-23T04:45:17;9.05;;;7.45;;
13102;SDS011;52970;46.752;17.108;2022-07-23T04:47:42;8.02;;;7.32;;
13102;SDS011;52970;46.752;17.108;2022-07-23T04:50:08;7.72;;;7.03;;
13102;SDS011;52970;46.752;17.108;2022-07-23T04:52:33;7.28;;;6.57;;
13102;SDS011;52970;46.752;17.108;2022-07-23T04:54:58;8.95;;;6.53;;
13102;SDS011;52970;46.752;17.108;2022-07-23T04:57:24;7.50;;;6.53;;
13102;SDS011;52970;46.752;17.108;2022-07-23T04:59:49;7.25;;;6.65;;
13102;SDS011;52970;46.752;17.108;2022-07-23T05:02:14;8.65;;;7.72;;
13102;SDS011;52970;46.752;17.108;2022-07-23T05:04:39;7.82;;;6.63;;
13102;SDS011;52970;46.752;17.108;2022-07-23T05:07:05;7.85;;;6.85;;
13102;SDS011;52970;46.752;17.108;2022-07-23T05:09:30;8.23;;;7.43;;
13102;SDS011;52970;46.752;17.108;2022-07-23T05:11:55;8.43;;;7.05;;
13102;SDS011;52970;46.752;17.108;2022-07-23T05:14:21;7.28;;;6.57;;
13102;SDS011;52970;46.752;17.108;2022-07-23T05:16:46;7.35;;;6.65;;
13102;SDS011;52970;46.752;17.108;2022-07-23T05:19:12;7.22;;;6.43;;
13102;SDS011;52970;46.752;17.108;2022-07-23T05:21:38;7.60;;;6.93;;
13102;SDS011;52970;46.752;17.108;2022-07-23T05:24:04;7.25;;;6.65;;
13102;SDS011;52970;46.752;17.108;2022-07-23T05:26:29;7.80;;;7.10;;
13102;SDS011;52970;46.752;17.108;2022-07-23T05:28:54;8.30;;;7.50;;
13102;SDS011;52970;46.752;17.108;2022-07-23T05:31:20;7.85;;;7.10;;
13102;SDS011;52970;46.752;17.108;2022-07-23T05:33:45;7.13;;;6.43;;
13102;SDS011;52970;46.752;17.108;2022-07-23T05:36:10;8.02;;;7.07;;
13102;SDS011;52970;46.752;17.108;2022-07-23T05:38:36;9.88;;;7.38;;
13102;SDS011;52970;46.752;17.108;2022-07-23T05:41:01;7.90;;;7.15;;
13102;SDS011;52970;46.752;17.108;2022-07-23T05:43:27;7.78;;;6.68;;
13102;SDS011;52970;46.752;17.108;2022-07-23T05:45:52;10.27;;;7.05;;
13102;SDS011;52970;46.752;17.108;2022-07-23T05:48:18;7.20;;;6.65;;
13102;SDS011;52970;46.752;17.108;2022-07-23T05:50:43;7.85;;;7.15;;
13102;SDS011;52970;46.752;17.108;2022-07-23T05:53:09;7.65;;;6.78;;
13102;SDS011;52970;46.752;17.108;2022-07-23T05:55:34;7.72;;;6.80;;
13102;SDS011;52970;46.752;17.108;2022-07-23T05:57:59;7.22;;;6.25;;
13102;SDS011;52970;46.752;17.108;2022-07-23T06:00:25;7.90;;;6.75;;
13102;SDS011;52970;46.752;17.108;2022-07-23T06:02:50;7.88;;;7.00;;
13102;SDS011;52970;46.752;17.108;2022-07-23T06:05:16;7.95;;;7.25;;
13102;SDS011;52970;46.752;17.108;2022-07-23T06:07:41;10.52;;;7.65;;
13102;SDS011;52970;46.752;17.108;2022-07-23T06:10:07;12.02;;;7.50;;
13102;SDS011;52970;46.752;17.108;2022-07-23T06:12:32;9.85;;;6.78;;
13102;SDS011;52970;46.752;17.108;2022-07-23T06:14:58;7.55;;;6.85;;
13102;SDS011;52970;46.752;17.108;2022-07-23T06:17:23;8.85;;;7.00;;
13102;SDS011;52970;46.752;17.108;2022-07-23T06:19:48;7.07;;;6.47;;
13102;SDS011;52970;46.752;17.108;2022-07-23T06:22:14;9.35;;;6.88;;
13102;SDS011;52970;46.752;17.108;2022-07-23T06:24:39;7.13;;;6.43;;
13102;SDS011;52970;46.752;17.108;2022-07-23T06:27:04;7.63;;;6.05;;
13102;SDS011;52970;46.752;17.108;2022-07-23T06:29:29;8.95;;;6.80;;
13102;SDS011;52970;46.752;17.108;2022-07-23T06:31:55;9.85;;;6.57;;
13102;SDS011;52970;46.752;17.108;2022-07-23T06:34:20;8.40;;;6.15;;
13102;SDS011;52970;46.752;17.108;2022-07-23T06:36:45;6.60;;;5.95;;
13102;SDS011;52970;46.752;17.108;2022-07-23T06:39:11;6.55;;;5.95;;
13102;SDS011;52970;46.752;17.108;2022-07-23T06:41:36;7.07;;;6.38;;
13102;SDS011;52970;46.752;17.108;2022-07-23T06:44:01;6.68;;;6.00;;
13102;SDS011;52970;46.752;17.108;2022-07-23T06:46:27;8.48;;;6.13;;
13102;SDS011;52970;46.752;17.108;2022-07-23T06:48:52;6.72;;;5.90;;
13102;SDS011;52970;46.752;17.108;2022-07-23T06:51:17;7.75;;;6.22;;
13102;SDS011;52970;46.752;17.108;2022-07-23T06:53:42;8.88;;;6.10;;
13102;SDS011;52970;46.752;17.108;2022-07-23T06:56:08;8.38;;;6.20;;
13102;SDS011;52970;46.752;17.108;2022-07-23T06:58:33;9.23;;;6.18;;
13102;SDS011;52970;46.752;17.108;2022-07-23T07:00:58;9.68;;;6.15;;
13102;SDS011;52970;46.752;17.108;2022-07-23T07:03:24;6.28;;;5.65;;
13102;SDS011;52970;46.752;17.108;2022-07-23T07:05:49;9.48;;;6.05;;
13102;SDS011;52970;46.752;17.108;2022-07-23T07:08:15;9.23;;;5.93;;
13102;SDS011;52970;46.752;17.108;2022-07-23T07:10:40;7.82;;;6.53;;
13102;SDS011;52970;46.752;17.108;2022-07-23T07:13:05;8.13;;;6.05;;
13102;SDS011;52970;46.752;17.108;2022-07-23T07:15:30;8.25;;;5.97;;
13102;SDS011;52970;46.752;17.108;2022-07-23T07:17:56;7.72;;;6.30;;
13102;SDS011;52970;46.752;17.108;2022-07-23T07:20:21;6.25;;;5.65;;
13102;SDS011;52970;46.752;17.108;2022-07-23T07:22:46;6.50;;;5.80;;
13102;SDS011;52970;46.752;17.108;2022-07-23T07:25:12;6.53;;;5.90;;
13102;SDS011;52970;46.752;17.108;2022-07-23T07:27:37;7.35;;;5.57;;
13102;SDS011;52970;46.752;17.108;2022-07-23T07:30:03;6.28;;;5.68;;
13102;SDS011;52970;46.752;17.108;2022-07-23T07:32:32;5.50;;;5.00;;
13102;SDS011;52970;46.752;17.108;2022-07-23T07:34:57;6.47;;;5.68;;
13102;SDS011;52970;46.752;17.108;2022-07-23T07:37:23;6.15;;;5.60;;
13102;SDS011;52970;46.752;17.108;2022-07-23T07:39:48;7.72;;;5.82;;
13102;SDS011;52970;46.752;17.108;2022-07-23T07:42:13;6.10;;;5.50;;
13102;SDS011;52970;46.752;17.108;2022-07-23T07:44:39;6.03;;;5.53;;
13102;SDS011;52970;46.752;17.108;2022-07-23T07:47:04;6.97;;;5.43;;
13102;SDS011;52970;46.752;17.108;2022-07-23T07:49:29;6.07;;;5.03;;
13102;SDS011;52970;46.752;17.108;2022-07-23T07:51:55;5.32;;;4.82;;
13102;SDS011;52970;46.752;17.108;2022-07-23T07:54:20;5.82;;;4.90;;
13102;SDS011;52970;46.752;17.108;2022-07-23T07:56:45;5.97;;;5.32;;
13102;SDS011;52970;46.752;17.108;2022-07-23T07:59:10;6.75;;;4.80;;
13102;SDS011;52970;46.752;17.108;2022-07-23T08:01:36;6.03;;;4.90;;
13102;SDS011;52970;46.752;17.108;2022-07-23T08:04:01;7.40;;;4.88;;
13102;SDS011;52970;46.752;17.108;2022-07-23T08:06:27;5.82;;;5.22;;
13102;SDS011;52970;46.752;17.108;2022-07-23T08:08:52;6.63;;;5.15;;
13102;SDS011;52970;46.752;17.108;2022-07-23T08:11:17;5.40;;;4.90;;
13102;SDS011;52970;46.752;17.108;2022-07-23T08:13:43;7.80;;;5.13;;
13102;SDS011;52970;46.752;17.108;2022-07-23T08:16:09;5.03;;;4.63;;
13102;SDS011;52970;46.752;17.108;2022-07-23T08:18:35;6.90;;;4.72;;
13102;SDS011;52970;46.752;17.108;2022-07-23T08:21:00;5.95;;;4.93;;
13102;SDS011;52970;46.752;17.108;2022-07-23T08:23:25;6.43;;;5.05;;
13102;SDS011;52970;46.752;17.108;2022-07-23T08:25:53;5.57;;;5.10;;
13102;SDS011;52970;46.752;17.108;2022-07-23T08:28:18;5.13;;;4.65;;
13102;SDS011;52970;46.752;17.108;2022-07-23T08:30:44;6.60;;;4.63;;
13102;SDS011;52970;46.752;17.108;2022-07-23T08:33:10;5.35;;;4.45;;
13102;SDS011;52970;46.752;17.108;2022-07-23T08:35:38;8.13;;;5.22;;
13102;SDS011;52970;46.752;17.108;2022-07-23T08:38:05;6.22;;;4.63;;
13102;SDS011;52970;46.752;17.108;2022-07-23T08:40:31;7.97;;;4.90;;
13102;SDS011;52970;46.752;17.108;2022-07-23T08:42:57;5.95;;;5.25;;
13102;SDS011;52970;46.752;17.108;2022-07-23T08:45:23;5.07;;;4.68;;
13102;SDS011;52970;46.752;17.108;2022-07-23T08:47:52;4.90;;;4.50;;
13102;SDS011;52970;46.752;17.108;2022-07-23T08:50:18;5.88;;;4.88;;
13102;SDS011;52970;46.752;17.108;2022-07-23T08:52:43;5.75;;;4.93;;
13102;SDS011;52970;46.752;17.108;2022-07-23T08:55:09;5.35;;;4.88;;
13102;SDS011;52970;46.752;17.108;2022-07-23T08:57:34;5.82;;;4.97;;
13102;SDS011;52970;46.752;17.108;2022-07-23T09:00:00;5.32;;;4.82;;
13102;SDS011;52970;46.752;17.108;2022-07-23T09:02:26;5.68;;;5.15;;
13102;SDS011;52970;46.752;17.108;2022-07-23T09:04:51;6.20;;;5.10;;
13102;SDS011;52970;46.752;17.108;2022-07-23T09:07:16;5.40;;;4.90;;
13102;SDS011;52970;46.752;17.108;2022-07-23T09:09:41;7.00;;;5.30;;
13102;SDS011;52970;46.752;17.108;2022-07-23T09:12:08;5.05;;;4.65;;
13102;SDS011;52970;46.752;17.108;2022-07-23T09:17:13;5.32;;;4.82;;
13102;SDS011;52970;46.752;17.108;2022-07-23T09:19:38;5.60;;;5.20;;
13102;SDS011;52970;46.752;17.108;2022-07-23T09:27:49;8.23;;;5.40;;
13102;SDS011;52970;46.752;17.108;2022-07-23T09:30:14;6.90;;;5.95;;
13102;SDS011;52970;46.752;17.108;2022-07-23T09:32:39;5.35;;;4.95;;
13102;SDS011;52970;46.752;17.108;2022-07-23T09:35:05;5.25;;;4.85;;
13102;SDS011;52970;46.752;17.108;2022-07-23T09:37:30;10.07;;;5.97;;
13102;SDS011;52970;46.752;17.108;2022-07-23T09:40:03;5.93;;;5.33;;
13102;SDS011;52970;46.752;17.108;2022-07-23T09:42:28;7.38;;;5.55;;
13102;SDS011;52970;46.752;17.108;2022-07-23T09:44:57;6.25;;;5.65;;
13102;SDS011;52970;46.752;17.108;2022-07-23T09:47:23;6.60;;;5.93;;
13102;SDS011;52970;46.752;17.108;2022-07-23T09:52:28;6.38;;;5.78;;
13102;SDS011;52970;46.752;17.108;2022-07-23T09:54:57;8.50;;;6.32;;
13102;SDS011;52970;46.752;17.108;2022-07-23T09:57:22;6.90;;;5.75;;
13102;SDS011;52970;46.752;17.108;2022-07-23T09:59:48;6.60;;;6.00;;
13102;SDS011;52970;46.752;17.108;2022-07-23T10:02:13;7.30;;;5.88;;
13102;SDS011;52970;46.752;17.108;2022-07-23T10:04:42;9.45;;;8.65;;
13102;SDS011;52970;46.752;17.108;2022-07-23T10:07:08;8.25;;;7.40;;
13102;SDS011;52970;46.752;17.108;2022-07-23T10:09:36;10.00;;;8.07;;
13102;SDS011;52970;46.752;17.108;2022-07-23T10:12:05;7.97;;;7.18;;
13102;SDS011;52970;46.752;17.108;2022-07-23T10:14:33;7.47;;;6.65;;
13102;SDS011;52970;46.752;17.108;2022-07-23T10:17:00;7.60;;;7.00;;
13102;SDS011;52970;46.752;17.108;2022-07-23T10:19:25;9.02;;;8.23;;
13102;SDS011;52970;46.752;17.108;2022-07-23T10:21:58;9.63;;;8.35;;
13102;SDS011;52970;46.752;17.108;2022-07-23T10:24:28;9.07;;;7.95;;
13102;SDS011;52970;46.752;17.108;2022-07-23T10:27:02;8.60;;;7.68;;
13102;SDS011;52970;46.752;17.108;2022-07-23T10:39:34;7.80;;;7.20;;
13102;SDS011;52970;46.752;17.108;2022-07-23T10:42:13;8.70;;;7.90;;
13102;SDS011;52970;46.752;17.108;2022-07-23T10:44:42;10.45;;;8.88;;
13102;SDS011;52970;46.752;17.108;2022-07-23T10:47:09;10.13;;;8.93;;
13102;SDS011;52970;46.752;17.108;2022-07-23T10:49:35;10.10;;;9.27;;
13102;SDS011;52970;46.752;17.108;2022-07-23T10:54:52;9.90;;;8.93;;
13102;SDS011;52970;46.752;17.108;2022-07-23T10:57:19;10.73;;;9.73;;
13102;SDS011;52970;46.752;17.108;2022-07-23T11:02:26;11.57;;;9.77;;
13102;SDS011;52970;46.752;17.108;2022-07-23T11:04:53;10.43;;;9.52;;
13102;SDS011;52970;46.752;17.108;2022-07-23T11:07:18;10.02;;;9.07;;
13102;SDS011;52970;46.752;17.108;2022-07-23T11:09:44;10.82;;;9.68;;
13102;SDS011;52970;46.752;17.108;2022-07-23T11:17:26;9.43;;;8.52;;
13102;SDS011;52970;46.752;17.108;2022-07-23T11:25:51;13.23;;;11.95;;
13102;SDS011;52970;46.752;17.108;2022-07-23T11:35:35;12.02;;;10.82;;
13102;SDS011;52970;46.752;17.108;2022-07-23T11:38:19;11.18;;;10.23;;
13102;SDS011;52970;46.752;17.108;2022-07-23T11:40:47;11.07;;;10.10;;
13102;SDS011;52970;46.752;17.108;2022-07-23T11:43:12;11.93;;;10.82;;
13102;SDS011;52970;46.752;17.108;2022-07-23T11:45:40;10.93;;;10.02;;
13102;SDS011;52970;46.752;17.108;2022-07-23T11:48:06;10.95;;;9.80;;
13102;SDS011;52970;46.752;17.108;2022-07-23T11:50:32;11.95;;;10.75;;
13102;SDS011;52970;46.752;17.108;2022-07-23T11:52:57;11.05;;;10.07;;
13102;SDS011;52970;46.752;17.108;2022-07-23T11:55:23;11.88;;;10.80;;
13102;SDS011;52970;46.752;17.108;2022-07-23T11:57:50;11.20;;;10.20;;
13102;SDS011;52970;46.752;17.108;2022-07-23T12:00:16;11.75;;;10.80;;
13102;SDS011;52970;46.752;17.108;2022-07-23T12:02:43;11.48;;;10.32;;
13102;SDS011;52970;46.752;17.108;2022-07-23T12:05:15;11.00;;;10.05;;
13102;SDS011;52970;46.752;17.108;2022-07-23T12:07:42;12.25;;;11.13;;
13102;SDS011;52970;46.752;17.108;2022-07-23T12:12:38;13.85;;;12.68;;
13102;SDS011;52970;46.752;17.108;2022-07-23T12:15:04;13.38;;;12.00;;
13102;SDS011;52970;46.752;17.108;2022-07-23T12:17:31;13.00;;;11.80;;
13102;SDS011;52970;46.752;17.108;2022-07-23T12:19:59;12.50;;;11.50;;
13102;SDS011;52970;46.752;17.108;2022-07-23T12:22:26;12.35;;;11.15;;
13102;SDS011;52970;46.752;17.108;2022-07-23T12:25:01;13.02;;;11.93;;
13102;SDS011;52970;46.752;17.108;2022-07-23T12:27:29;16.50;;;14.95;;
13102;SDS011;52970;46.752;17.108;2022-07-23T12:29:54;16.13;;;14.65;;
13102;SDS011;52970;46.752;17.108;2022-07-23T12:32:21;16.35;;;14.70;;
13102;SDS011;52970;46.752;17.108;2022-07-23T12:34:51;14.23;;;13.02;;
13102;SDS011;52970;46.752;17.108;2022-07-23T12:37:26;13.07;;;12.05;;
13102;SDS011;52970;46.752;17.108;2022-07-23T12:39:52;13.35;;;12.05;;
13102;SDS011;52970;46.752;17.108;2022-07-23T12:42:17;13.25;;;12.10;;
13102;SDS011;52970;46.752;17.108;2022-07-23T12:45:02;15.68;;;14.10;;
13102;SDS011;52970;46.752;17.108;2022-07-23T12:47:27;13.77;;;12.45;;
13102;SDS011;52970;46.752;17.108;2022-07-23T12:49:52;15.33;;;13.73;;
13102;SDS011;52970;46.752;17.108;2022-07-23T12:52:17;14.73;;;13.40;;
13102;SDS011;52970;46.752;17.108;2022-07-23T12:54:43;15.40;;;13.95;;
13102;SDS011;52970;46.752;17.108;2022-07-23T12:57:09;15.30;;;13.97;;
13102;SDS011;52970;46.752;17.108;2022-07-23T12:59:34;15.30;;;13.80;;
13102;SDS011;52970;46.752;17.108;2022-07-23T13:01:59;16.38;;;14.88;;
13102;SDS011;52970;46.752;17.108;2022-07-23T13:04:25;16.35;;;14.65;;
13102;SDS011;52970;46.752;17.108;2022-07-23T13:06:57;14.40;;;13.10;;
13102;SDS011;52970;46.752;17.108;2022-07-23T13:09:27;13.45;;;12.27;;
13102;SDS011;52970;46.752;17.108;2022-07-23T13:11:53;13.40;;;12.30;;
13102;SDS011;52970;46.752;17.108;2022-07-23T13:14:19;14.65;;;13.15;;
13102;SDS011;52970;46.752;17.108;2022-07-23T13:16:45;15.18;;;13.82;;
13102;SDS011;52970;46.752;17.108;2022-07-23T13:19:10;14.70;;;13.38;;
13102;SDS011;52970;46.752;17.108;2022-07-23T13:21:36;14.20;;;12.90;;
13102;SDS011;52970;46.752;17.108;2022-07-23T13:24:01;15.02;;;13.63;;
13102;SDS011;52970;46.752;17.108;2022-07-23T13:26:27;14.43;;;13.10;;
13102;SDS011;52970;46.752;17.108;2022-07-23T13:28:52;19.80;;;13.55;;
13102;SDS011;52970;46.752;17.108;2022-07-23T13:31:21;15.25;;;13.32;;
13102;SDS011;52970;46.752;17.108;2022-07-23T13:33:46;14.25;;;13.00;;
13102;SDS011;52970;46.752;17.108;2022-07-23T13:36:11;14.00;;;12.60;;
13102;SDS011;52970;46.752;17.108;2022-07-23T13:38:37;14.65;;;13.27;;
13102;SDS011;52970;46.752;17.108;2022-07-23T13:41:03;14.45;;;13.15;;
13102;SDS011;52970;46.752;17.108;2022-07-23T13:43:29;14.25;;;12.95;;
13102;SDS011;52970;46.752;17.108;2022-07-23T13:45:54;15.20;;;13.90;;
13102;SDS011;52970;46.752;17.108;2022-07-23T13:48:20;15.35;;;13.77;;
13102;SDS011;52970;46.752;17.108;2022-07-23T13:50:46;13.70;;;12.50;;
13102;SDS011;52970;46.752;17.108;2022-07-23T13:53:15;14.38;;;13.13;;
13102;SDS011;52970;46.752;17.108;2022-07-23T13:55:40;14.68;;;13.20;;
13102;SDS011;52970;46.752;17.108;2022-07-23T13:58:06;14.93;;;13.45;;
13102;SDS011;52970;46.752;17.108;2022-07-23T14:00:32;14.77;;;13.48;;
13102;SDS011;52970;46.752;17.108;2022-07-23T14:02:58;15.10;;;13.57;;
13102;SDS011;52970;46.752;17.108;2022-07-23T14:05:23;15.00;;;13.50;;
13102;SDS011;52970;46.752;17.108;2022-07-23T14:07:49;12.75;;;11.55;;
13102;SDS011;52970;46.752;17.108;2022-07-23T14:10:16;13.38;;;12.18;;
13102;SDS011;52970;46.752;17.108;2022-07-23T14:12:42;12.65;;;11.55;;
13102;SDS011;52970;46.752;17.108;2022-07-23T14:15:08;12.07;;;11.07;;
13102;SDS011;52970;46.752;17.108;2022-07-23T14:17:34;11.75;;;10.75;;
13102;SDS011;52970;46.752;17.108;2022-07-23T14:20:00;11.35;;;10.45;;
13102;SDS011;52970;46.752;17.108;2022-07-23T14:22:26;12.73;;;10.93;;
13102;SDS011;52970;46.752;17.108;2022-07-23T14:24:51;10.15;;;9.27;;
13102;SDS011;52970;46.752;17.108;2022-07-23T14:27:16;11.77;;;10.80;;
13102;SDS011;52970;46.752;17.108;2022-07-23T14:29:41;11.30;;;10.18;;
13102;SDS011;52970;46.752;17.108;2022-07-23T14:32:07;11.85;;;10.73;;
13102;SDS011;52970;46.752;17.108;2022-07-23T14:34:32;12.90;;;10.82;;
13102;SDS011;52970;46.752;17.108;2022-07-23T14:36:58;11.80;;;10.80;;
13102;SDS011;52970;46.752;17.108;2022-07-23T14:39:24;11.95;;;10.75;;
13102;SDS011;52970;46.752;17.108;2022-07-23T14:41:49;13.20;;;11.85;;
13102;SDS011;52970;46.752;17.108;2022-07-23T14:44:14;12.02;;;11.13;;
13102;SDS011;52970;46.752;17.108;2022-07-23T14:46:40;12.23;;;11.20;;
13102;SDS011;52970;46.752;17.108;2022-07-23T14:49:05;12.32;;;11.13;;
13102;SDS011;52970;46.752;17.108;2022-07-23T14:51:30;12.43;;;11.23;;
13102;SDS011;52970;46.752;17.108;2022-07-23T14:53:56;11.85;;;10.77;;
13102;SDS011;52970;46.752;17.108;2022-07-23T14:56:21;22.63;;;7.90;;
13102;SDS011;52970;46.752;17.108;2022-07-23T14:58:46;21.08;;;7.22;;
13102;SDS011;52970;46.752;17.108;2022-07-23T15:01:12;24.30;;;7.07;;
13102;SDS011;52970;46.752;17.108;2022-07-23T15:03:37;16.43;;;6.23;;
13102;SDS011;52970;46.752;17.108;2022-07-23T15:06:03;8.53;;;5.87;;
13102;SDS011;52970;46.752;17.108;2022-07-23T15:08:28;8.43;;;6.18;;